Time;durP1;ratioP1;P1;durP2;ratioP2;P2;SDS_P1;SDS_P2;PMS_P1;PMS_P2;Temp;Humidity;BMP_temperature;BMP_pressure;BME280_temperature;BME280_humidity;BME280_pressure;Samples;Min_cycle;Max_cycle;Signal;HPM_P1;HPM_P2
2021/04/13 00:02:14;;;;;;;;;;;;;;;11.56;43.12;103233.25;5137780;27;19919;-86
2021/04/13 00:04:41;;;;;;;;;;;;;;;11.60;42.74;103224.16;5142577;27;19915;-86
2021/04/13 00:07:08;;;;;;;;;;;;;;;11.28;43.65;103228.19;5143694;27;19923;-85
2021/04/13 00:09:34;;;;;;;;;;;;;;;11.81;42.30;103228.38;5126495;27;20022;-85
2021/04/13 00:12:11;;;;;;;;;;;;;;;11.65;42.55;103227.69;5126439;27;19974;-84
2021/04/13 00:14:39;;;;;;;;;;;;;;;11.69;42.45;103225.84;5126308;27;19915;-86
2021/04/13 00:17:07;;;;;;;;;;;;;;;11.61;42.49;103225.03;5126577;27;19926;-85
2021/04/13 00:19:48;;;;;;;;;;;;;;;11.65;42.37;103224.97;5126226;27;19974;-84
2021/04/13 00:22:14;;;;;;;;;;;;;;;11.60;42.39;103224.16;5127515;27;19906;-85
2021/04/13 00:24:40;;;;;;;;;;;;;;;11.39;42.61;103228.06;5127463;28;20332;-85
2021/04/13 00:27:06;;;;;;;;;;;;;;;11.62;42.40;103226.84;5145502;27;19916;-86
2021/04/13 00:29:32;;;;;;;;;;;;;;;11.48;42.01;103229.75;5126926;28;19967;-84
2021/04/13 00:32:02;;;;;;;;;;;;;;;11.66;42.04;103229.50;5127668;28;19933;-85
2021/04/13 00:34:35;;;;;;;;;;;;;;;11.68;41.53;103224.97;5110877;28;19949;-84
2021/04/13 00:37:13;;;;;;;;;;;;;;;11.93;40.85;103235.50;5127576;28;19911;-86
2021/04/13 00:39:38;;;;;;;;;;;;;;;11.99;40.66;103229.97;5127380;28;19915;-86
2021/04/13 00:42:06;;;;;;;;;;;;;;;11.87;40.84;103231.00;5128318;28;20299;-86
2021/04/13 00:44:34;;;;;;;;;;;;;;;11.91;40.39;103225.53;5128033;28;19915;-86
2021/04/13 00:47:04;;;;;;;;;;;;;;;11.95;40.77;103230.03;5123408;28;19912;-86
2021/04/13 00:49:31;;;;;;;;;;;;;;;11.96;40.48;103230.00;5124446;28;20273;-86
2021/04/13 00:51:59;;;;;;;;;;;;;;;11.89;40.58;103228.28;5123719;28;19969;-86
2021/04/13 00:54:30;;;;;;;;;;;;;;;11.99;40.63;103231.78;5142578;28;19998;-87
2021/04/13 00:56:56;;;;;;;;;;;;;;;11.89;40.41;103234.59;5124034;28;19922;-86
2021/04/13 00:59:23;;;;;;;;;;;;;;;11.97;40.62;103233.59;5124874;28;19923;-85
2021/04/13 01:01:54;;;;;;;;;;;;;;;11.88;40.87;103232.81;5123895;28;19962;-84
2021/04/13 01:04:21;;;;;;;;;;;;;;;11.70;40.98;103233.97;5122721;28;19922;-87
2021/04/13 01:06:57;;;;;;;;;;;;;;;11.56;41.16;103226.94;5123379;28;19984;-86
2021/04/13 01:09:24;;;;;;;;;;;;;;;11.44;41.29;103228.00;5123419;28;19903;-86
2021/04/13 01:11:53;;;;;;;;;;;;;;;11.79;40.59;103235.66;5122647;27;20018;-86
2021/04/13 01:14:20;;;;;;;;;;;;;;;11.78;40.03;103230.25;5126603;28;20009;-86
2021/04/13 01:16:46;;;;;;;;;;;;;;;11.78;40.41;103230.25;5123606;27;20322;-86
2021/04/13 01:19:30;;;;;;;;;;;;;;;11.79;40.32;103222.09;5142464;27;19915;-87
2021/04/13 01:22:00;;;;;;;;;;;;;;;11.27;41.49;103231.81;5146633;27;19986;-88
2021/04/13 01:24:31;;;;;;;;;;;;;;;11.64;40.54;103230.44;5147254;27;20001;-86
2021/04/13 01:26:57;;;;;;;;;;;;;;;11.64;40.75;103227.72;5147408;27;19936;-85
2021/04/13 01:29:28;;;;;;;;;;;;;;;11.42;41.17;103227.13;5147880;27;19923;-85
2021/04/13 01:31:56;;;;;;;;;;;;;;;11.60;40.88;103226.88;5128918;27;19915;-85
2021/04/13 01:34:33;;;;;;;;;;;;;;;11.68;40.58;103227.69;5128109;27;19942;-84
2021/04/13 01:37:04;;;;;;;;;;;;;;;11.67;40.45;103222.25;5126794;27;19960;-85
2021/04/13 01:39:32;;;;;;;;;;;;;;;11.74;40.15;103231.22;5128127;27;19935;-86
2021/04/13 01:42:01;;;;;;;;;;;;;;;11.96;39.88;103229.13;5128147;27;19919;-87
2021/04/13 01:44:35;;;;;;;;;;;;;;;11.84;39.90;103219.31;5127400;27;19915;-86
2021/04/13 01:47:01;;;;;;;;;;;;;;;11.85;39.82;103223.81;5126288;27;19996;-86
2021/04/13 01:49:27;;;;;;;;;;;;;;;11.91;39.59;103223.72;5125825;27;19919;-86
2021/04/13 01:51:52;;;;;;;;;;;;;;;11.83;40.17;103223.81;5126770;27;19922;-87
2021/04/13 01:54:18;;;;;;;;;;;;;;;11.88;39.83;103234.59;5126977;27;19997;-86
2021/04/13 01:56:43;;;;;;;;;;;;;;;11.68;39.88;103235.81;5126656;27;19923;-86
2021/04/13 01:59:12;;;;;;;;;;;;;;;11.97;39.49;103230.91;5126492;27;19915;-85
2021/04/13 02:01:39;;;;;;;;;;;;;;;11.77;39.73;103242.00;5126187;27;19933;-86
2021/04/13 02:04:05;;;;;;;;;;;;;;;11.79;39.72;103232.94;5125846;27;19974;-86
2021/04/13 02:06:38;;;;;;;;;;;;;;;11.64;40.28;103236.78;5125483;27;20045;-86
2021/04/13 02:09:08;;;;;;;;;;;;;;;11.39;40.63;103241.59;5126704;27;19931;-86
2021/04/13 02:11:35;;;;;;;;;;;;;;;11.65;40.19;103246.69;5126719;27;19971;-85
2021/04/13 02:14:08;;;;;;;;;;;;;;;11.47;40.58;103244.22;5127157;27;20052;-86
2021/04/13 02:16:45;;;;;;;;;;;;;;;11.40;40.94;103245.19;5146043;27;19915;-86
2021/04/13 02:19:10;;;;;;;;;;;;;;;11.50;40.41;103241.47;5126189;27;19923;-86
2021/04/13 02:21:55;;;;;;;;;;;;;;;11.38;40.76;103242.50;5126532;27;19915;-86
2021/04/13 02:24:29;;;;;;;;;;;;;;;11.33;40.88;103256.13;5126006;27;19919;-86
2021/04/13 02:26:55;;;;;;;;;;;;;;;11.43;40.57;103251.50;5126121;27;20437;-85
2021/04/13 02:29:22;;;;;;;;;;;;;;;11.15;41.18;103261.75;5125173;27;19919;-88
2021/04/13 02:31:59;;;;;;;;;;;;;;;11.02;41.52;103260.09;5125913;27;19916;-87
2021/04/13 02:34:27;;;;;;;;;;;;;;;11.20;41.41;103257.19;5124978;27;19900;-87
2021/04/13 02:36:53;;;;;;;;;;;;;;;11.28;40.87;103252.59;5124368;27;19915;-83
2021/04/13 02:39:20;;;;;;;;;;;;;;;11.07;41.68;103252.84;5141625;27;20382;-86
2021/04/13 02:41:49;;;;;;;;;;;;;;;11.15;41.45;103256.34;5125457;27;19924;-86
2021/04/13 02:44:17;;;;;;;;;;;;;;;11.25;41.36;103259.88;5124965;27;19970;-85
2021/04/13 02:46:43;;;;;;;;;;;;;;;11.56;40.50;103263.06;5124983;27;19922;-85
2021/04/13 02:49:10;;;;;;;;;;;;;;;11.37;40.82;103253.38;5123216;27;20021;-86
2021/04/13 02:51:39;;;;;;;;;;;;;;;11.03;41.79;103259.19;5123977;27;19916;-85
2021/04/13 02:54:14;;;;;;;;;;;;;;;11.10;41.58;103260.94;5121793;27;19911;-86
2021/04/13 02:56:41;;;;;;;;;;;;;;;11.29;41.09;103258.88;5124836;27;19900;-87
2021/04/13 02:59:13;;;;;;;;;;;;;;;11.23;41.36;103257.19;5123204;27;19917;-85
2021/04/13 03:01:41;;;;;;;;;;;;;;;11.32;41.06;103258.84;5123150;27;20509;-86
2021/04/13 03:04:08;;;;;;;;;;;;;;;10.70;42.08;103262.22;5123213;27;19915;-85
2021/04/13 03:06:39;;;;;;;;;;;;;;;10.99;41.61;103255.59;5126852;27;19919;-88
2021/04/13 03:09:06;;;;;;;;;;;;;;;11.14;41.49;103255.47;5144965;27;19919;-87
2021/04/13 03:11:33;;;;;;;;;;;;;;;10.88;41.78;103255.72;5144710;27;19923;-87
2021/04/13 03:13:58;;;;;;;;;;;;;;;11.24;41.19;103248.09;5146834;27;20295;-87
2021/04/13 03:16:53;;;;;;;;;;;;;;;11.10;41.09;103258.22;5146451;27;19919;-87
2021/04/13 03:19:20;;;;;;;;;;;;;;;11.13;41.08;103260.91;5124108;27;19915;-87
2021/04/13 03:21:47;;;;;;;;;;;;;;;11.12;40.94;103259.09;5146904;27;19920;-87
2021/04/13 03:24:16;;;;;;;;;;;;;;;10.87;41.60;103259.38;5147514;27;19903;-86
2021/04/13 03:26:44;;;;;;;;;;;;;;;11.15;41.06;103261.75;5147082;27;19946;-86
2021/04/13 03:29:14;;;;;;;;;;;;;;;11.07;40.93;103260.97;5145287;27;19923;-86
2021/04/13 03:31:40;;;;;;;;;;;;;;;11.08;40.90;103265.44;5128244;27;20010;-85
2021/04/13 03:34:06;;;;;;;;;;;;;;;11.11;40.61;103257.28;5144019;27;19951;-85
2021/04/13 03:36:31;;;;;;;;;;;;;;;11.01;41.54;103255.63;5144193;27;19927;-86
2021/04/13 03:38:59;;;;;;;;;;;;;;;11.09;40.90;103259.13;5145154;27;20389;-87
2021/04/13 03:41:25;;;;;;;;;;;;;;;10.98;41.03;103259.25;5146219;27;19976;-86
2021/04/13 03:43:56;;;;;;;;;;;;;;;10.81;41.46;103251.31;5145263;27;20400;-85
2021/04/13 03:46:23;;;;;;;;;;;;;;;10.95;41.40;103260.16;5145995;27;19915;-86
2021/04/13 03:48:50;;;;;;;;;;;;;;;10.95;41.35;103262.88;5145996;27;19986;-86
2021/04/13 03:51:22;;;;;;;;;;;;;;;10.75;41.52;103262.16;5144114;27;19946;-87
2021/04/13 03:53:47;;;;;;;;;;;;;;;10.93;41.04;103264.72;5142779;27;20376;-86
2021/04/13 03:56:15;;;;;;;;;;;;;;;10.88;41.24;103263.84;5142474;27;19923;-86
2021/04/13 03:58:42;;;;;;;;;;;;;;;11.29;40.57;103254.38;5143560;27;19922;-86
2021/04/13 04:01:08;;;;;;;;;;;;;;;11.45;39.96;103259.63;5144238;27;20101;-85
2021/04/13 04:03:34;;;;;;;;;;;;;;;11.51;39.65;103256.81;5145220;27;19922;-87
2021/04/13 04:06:01;;;;;;;;;;;;;;;11.29;39.96;103248.97;5145747;27;19936;-85
2021/04/13 04:08:29;;;;;;;;;;;;;;;11.31;40.07;103254.38;5162506;27;19960;-86
2021/04/13 04:10:54;;;;;;;;;;;;;;;11.29;40.00;103246.25;5143992;27;19949;-86
2021/04/13 04:13:22;;;;;;;;;;;;;;;10.87;41.03;103262.06;5144851;27;19915;-85
2021/04/13 04:16:14;;;;;;;;;;;;;;;11.13;40.48;103269.03;5145349;27;19919;-86
2021/04/13 04:18:41;;;;;;;;;;;;;;;11.15;40.21;103268.06;5139270;27;20328;-87
2021/04/13 04:21:14;;;;;;;;;;;;;;;11.22;39.96;103260.78;5145443;27;19919;-86
2021/04/13 04:23:39;;;;;;;;;;;;;;;11.20;40.03;103273.44;5147065;27;19915;-86
2021/04/13 04:26:06;;;;;;;;;;;;;;;11.02;40.90;103270.94;5144490;27;19981;-85
2021/04/13 04:28:36;;;;;;;;;;;;;;;11.11;40.43;103282.59;5144097;27;19919;-85
2021/04/13 04:31:20;;;;;;;;;;;;;;;11.26;40.38;103278.81;5145123;27;19940;-86
2021/04/13 04:33:46;;;;;;;;;;;;;;;11.24;40.39;103279.75;5126315;28;19920;-86
2021/04/13 04:36:29;;;;;;;;;;;;;;;11.29;40.03;103284.19;5122603;28;19899;-86
2021/04/13 04:38:55;;;;;;;;;;;;;;;11.32;39.69;103280.53;5141779;27;19920;-87
2021/04/13 04:41:43;;;;;;;;;;;;;;;11.20;40.27;103284.28;5123255;28;19911;-87
2021/04/13 04:44:18;;;;;;;;;;;;;;;11.16;40.26;103285.25;5122612;28;20376;-86
2021/04/13 04:46:44;;;;;;;;;;;;;;;11.26;40.01;103292.38;5123502;28;19990;-86
2021/04/13 04:49:10;;;;;;;;;;;;;;;11.12;40.22;103289.78;5123128;28;19981;-87
2021/04/13 04:51:36;;;;;;;;;;;;;;;11.27;39.92;103296.84;5124784;27;19915;-88
2021/04/13 04:54:02;;;;;;;;;;;;;;;11.24;39.93;103296.88;5144737;27;19962;-87
2021/04/13 04:56:27;;;;;;;;;;;;;;;11.22;39.95;103285.16;5146494;27;19919;-87
2021/04/13 04:58:52;;;;;;;;;;;;;;;11.18;40.04;103291.53;5128006;27;19915;-86
2021/04/13 05:01:18;;;;;;;;;;;;;;;11.27;39.98;103291.44;5126925;27;19915;-87
2021/04/13 05:03:43;;;;;;;;;;;;;;;11.33;40.06;103295.88;5127593;27;19966;-87
2021/04/13 05:06:10;;;;;;;;;;;;;;;11.18;40.51;103296.94;5128068;27;19961;-87
2021/04/13 05:08:35;;;;;;;;;;;;;;;11.17;40.34;103300.56;5128732;27;19970;-87
2021/04/13 05:11:01;;;;;;;;;;;;;;;11.33;40.06;103296.78;5110092;27;20361;-87
2021/04/13 05:13:26;;;;;;;;;;;;;;;11.24;40.13;103305.00;5127253;27;19911;-87
2021/04/13 05:15:52;;;;;;;;;;;;;;;11.53;39.56;103303.78;5126329;27;20273;-86
2021/04/13 05:18:17;;;;;;;;;;;;;;;11.57;39.84;103308.25;5124531;27;19972;-86
2021/04/13 05:20:44;;;;;;;;;;;;;;;11.61;39.66;103310.03;5128876;27;20497;-86
2021/04/13 05:23:09;;;;;;;;;;;;;;;11.67;39.50;103312.66;5138085;27;19998;-83
2021/04/13 05:25:34;;;;;;;;;;;;;;;11.68;39.47;103317.16;5123778;27;19993;-86
2021/04/13 05:28:00;;;;;;;;;;;;;;;11.66;39.15;103316.25;5125813;27;19915;-87
2021/04/13 05:30:25;;;;;;;;;;;;;;;11.82;39.25;103322.41;5125378;27;19947;-86
2021/04/13 05:32:51;;;;;;;;;;;;;;;11.96;39.08;103322.25;5144449;27;19915;-88
2021/04/13 05:35:17;;;;;;;;;;;;;;;11.98;38.76;103323.13;5126641;27;19915;-89
2021/04/13 05:37:42;;;;;;;;;;;;;;;11.87;39.04;103327.78;5127264;27;19915;-87
2021/04/13 05:40:12;;;;;;;;;;;;;;;12.14;38.74;103339.16;5130373;27;20395;-88
2021/04/13 05:42:37;;;;;;;;;;;;;;;12.30;38.61;103340.75;5135016;27;20051;-85
2021/04/13 05:45:04;;;;;;;;;;;;;;;12.43;38.46;103336.03;5140355;27;19950;-88
2021/04/13 05:47:31;;;;;;;;;;;;;;;12.49;37.99;103343.22;5131687;27;19923;-89
2021/04/13 05:49:57;;;;;;;;;;;;;;;12.57;38.40;103349.41;5133309;27;19922;-85
2021/04/13 05:52:22;;;;;;;;;;;;;;;12.74;38.03;103347.31;5139110;27;19916;-86
2021/04/13 05:54:47;;;;;;;;;;;;;;;12.86;37.84;103350.72;5156929;27;19919;-86
2021/04/13 05:57:14;;;;;;;;;;;;;;;12.64;38.35;103351.09;5170837;27;19915;-90
2021/04/13 05:59:40;;;;;;;;;;;;;;;12.69;38.28;103351.91;5153341;27;19915;-87
2021/04/13 06:02:06;;;;;;;;;;;;;;;12.90;37.96;103353.38;5150708;27;19916;-86
2021/04/13 06:04:32;;;;;;;;;;;;;;;13.20;37.10;103356.47;5171930;27;19915;-87
2021/04/13 06:06:57;;;;;;;;;;;;;;;13.09;37.35;103366.66;5155730;27;19919;-87
2021/04/13 06:09:22;;;;;;;;;;;;;;;12.67;37.76;103371.91;5170212;27;19970;-87
2021/04/13 06:11:49;;;;;;;;;;;;;;;13.00;37.42;103372.22;5149305;27;19983;-87
2021/04/13 06:14:15;;;;;;;;;;;;;;;13.29;36.88;103367.19;5146389;27;19915;-87
2021/04/13 06:16:42;;;;;;;;;;;;;;;12.37;38.64;103369.59;5145715;27;19925;-89
2021/04/13 06:19:08;;;;;;;;;;;;;;;12.61;39.06;103374.72;5146640;27;19926;-86
2021/04/13 06:21:33;;;;;;;;;;;;;;;12.90;38.05;103376.94;5146753;27;19914;-89
2021/04/13 06:23:59;;;;;;;;;;;;;;;13.12;37.79;103378.38;5145944;27;19926;-86
2021/04/13 06:26:25;;;;;;;;;;;;;;;12.87;38.03;103380.59;5163254;27;19903;-85
2021/04/13 06:28:50;;;;;;;;;;;;;;;13.21;37.78;103380.03;5164030;27;19919;-85
2021/04/13 06:31:15;;;;;;;;;;;;;;;13.43;37.47;103382.38;5151460;27;19973;-86
2021/04/13 06:33:41;;;;;;;;;;;;;;;13.45;37.15;103378.72;5130284;27;19926;-86
2021/04/13 06:36:07;;;;;;;;;;;;;;;13.81;37.19;103383.44;5134009;27;19965;-87
2021/04/13 06:38:36;;;;;;;;;;;;;;;13.42;38.30;103381.50;5104366;27;19985;-87
2021/04/13 06:41:01;;;;;;;;;;;;;;;13.14;38.63;103394.63;5132647;27;19931;-85
2021/04/13 06:43:46;;;;;;;;;;;;;;;13.70;37.24;103393.66;5141769;27;19921;-86
2021/04/13 06:46:14;;;;;;;;;;;;;;;13.97;36.94;103389.47;5142028;27;20279;-85
2021/04/13 06:48:48;;;;;;;;;;;;;;;13.48;38.13;103388.59;5142246;27;20349;-86
2021/04/13 06:51:20;;;;;;;;;;;;;;;13.07;38.55;103396.59;5143156;27;19899;-86
2021/04/13 06:53:48;;;;;;;;;;;;;;;12.85;39.75;103395.16;5162852;27;19899;-86
2021/04/13 06:56:33;;;;;;;;;;;;;;;13.28;38.34;103400.72;5144471;27;20056;-86
2021/04/13 06:59:01;;;;;;;;;;;;;;;13.43;38.79;103402.28;5143925;27;19919;-86
2021/04/13 07:01:26;;;;;;;;;;;;;;;13.26;39.18;103404.41;5144374;27;20356;-88
2021/04/13 07:04:10;;;;;;;;;;;;;;;12.66;39.67;103408.13;5144385;27;19923;-89
2021/04/13 07:06:37;;;;;;;;;;;;;;;12.70;40.03;103402.59;5145574;27;20408;-87
2021/04/13 07:09:21;;;;;;;;;;;;;;;12.40;39.95;103409.41;5144415;27;19936;-88
2021/04/13 07:11:50;;;;;;;;;;;;;;;12.77;39.60;103417.91;5144703;27;20312;-89
2021/04/13 07:14:21;;;;;;;;;;;;;;;12.91;39.01;103419.50;5143018;27;20018;-86
2021/04/13 07:16:51;;;;;;;;;;;;;;;13.40;38.34;103421.38;5144270;27;19915;-84
2021/04/13 07:19:19;;;;;;;;;;;;;;;13.58;37.71;103419.25;5146868;27;20279;-88
2021/04/13 07:21:47;;;;;;;;;;;;;;;13.05;38.98;103421.97;5148908;27;19915;-86
2021/04/13 07:24:23;;;;;;;;;;;;;;;13.40;38.22;103425.94;5146827;27;19923;-87
2021/04/13 07:26:55;;;;;;;;;;;;;;;12.89;38.78;103426.75;5135916;27;20321;-88
2021/04/13 07:29:27;;;;;;;;;;;;;;;12.61;39.45;103420.88;5127265;27;20064;-86
2021/04/13 07:32:07;;;;;;;;;;;;;;;12.90;37.63;103417.69;5135692;27;19922;-88
2021/04/13 07:34:38;;;;;;;;;;;;;;;12.68;38.22;103422.56;5143056;27;20438;-88
2021/04/13 07:37:20;;;;;;;;;;;;;;;12.93;38.21;103423.97;5141802;27;19907;-87
2021/04/13 07:39:48;;;;;;;;;;;;;;;13.98;35.91;103422.09;5135646;27;19937;-89
2021/04/13 07:42:19;;;;;;;;;;;;;;;13.52;36.78;103425.69;5144436;27;19980;-87
2021/04/13 07:45:04;;;;;;;;;;;;;;;13.83;36.19;103423.28;5128146;27;19975;-88
2021/04/13 07:47:56;;;;;;;;;;;;;;;12.99;37.46;103428.41;5124937;27;19900;-87
2021/04/13 07:50:31;;;;;;;;;;;;;;;13.58;36.46;103428.31;5086264;27;19916;-89
2021/04/13 07:52:59;;;;;;;;;;;;;;;13.61;36.18;103430.97;5124476;27;19944;-89
2021/04/13 07:55:35;;;;;;;;;;;;;;;13.54;36.41;103437.47;5123152;27;19926;-87
2021/04/13 07:58:06;;;;;;;;;;;;;;;13.21;37.44;103438.91;5123799;27;19911;-87
2021/04/13 08:00:44;;;;;;;;;;;;;;;13.35;36.51;103436.91;5122726;27;19912;-85
2021/04/13 08:03:31;;;;;;;;;;;;;;;13.28;36.38;103440.59;5123019;27;19947;-87
2021/04/13 08:05:58;;;;;;;;;;;;;;;14.00;35.40;103441.09;5125465;27;19941;-89
2021/04/13 08:08:41;;;;;;;;;;;;;;;14.00;34.62;103431.09;5124705;27;20003;-88
2021/04/13 08:11:12;;;;;;;;;;;;;;;14.49;34.39;103428.25;5125297;27;20380;-91
2021/04/13 08:13:39;;;;;;;;;;;;;;;15.23;33.67;103431.94;5125829;27;19923;-88
2021/04/13 08:16:05;;;;;;;;;;;;;;;15.07;34.05;103434.19;5125909;27;19922;-90
2021/04/13 08:18:41;;;;;;;;;;;;;;;14.73;34.36;103432.28;5109412;27;19930;-93
2021/04/13 08:21:12;;;;;;;;;;;;;;;15.52;33.36;103436.66;5124499;27;19916;-90
2021/04/13 08:23:38;;;;;;;;;;;;;;;16.50;31.58;103428.38;5124593;28;19923;-89
2021/04/13 08:26:23;;;;;;;;;;;;;;;16.42;31.13;103429.50;5125755;27;19998;-89
2021/04/13 08:28:56;;;;;;;;;;;;;;;15.63;32.13;103430.00;5130339;27;19912;-89
2021/04/13 08:34:43;;;;;;;;;;;;;;;15.81;32.73;103429.53;5161275;27;19965;-90
2021/04/13 08:37:13;;;;;;;;;;;;;;;15.10;34.14;103433.19;5107034;28;19919;-86
2021/04/13 08:39:42;;;;;;;;;;;;;;;16.48;32.08;103440.25;5127771;27;19926;-88
2021/04/13 08:42:11;;;;;;;;;;;;;;;15.00;33.85;103432.53;5143511;27;19919;-89
2021/04/13 08:44:37;;;;;;;;;;;;;;;14.37;34.85;103445.75;5143004;27;19955;-89
2021/04/13 08:47:09;;;;;;;;;;;;;;;14.57;33.97;103447.13;5131311;28;19916;-89
2021/04/13 08:49:40;;;;;;;;;;;;;;;14.79;34.29;103437.56;5123195;28;19920;-88
2021/04/13 08:52:17;;;;;;;;;;;;;;;14.96;33.42;103444.44;5124751;27;19919;-90
2021/04/13 08:54:48;;;;;;;;;;;;;;;14.28;33.54;103440.50;5123951;28;19916;-87
2021/04/13 08:57:24;;;;;;;;;;;;;;;15.53;32.65;103443.88;5120508;28;20260;-87
2021/04/13 08:59:52;;;;;;;;;;;;;;;15.69;31.85;103432.56;5142215;28;19959;-89
2021/04/13 09:02:25;;;;;;;;;;;;;;;16.78;30.65;103428.41;5123272;28;19926;-87
2021/04/13 09:05:09;;;;;;;;;;;;;;;16.05;30.83;103437.94;5122927;27;20010;-87
2021/04/13 09:07:47;;;;;;;;;;;;;;;15.58;31.23;103428.28;5130684;27;20322;-89
2021/04/13 09:10:15;;;;;;;;;;;;;;;15.80;31.17;103437.75;5143302;27;19919;-90
2021/04/13 09:12:43;;;;;;;;;;;;;;;15.81;30.31;103437.72;5143081;27;19903;-88
2021/04/13 09:15:19;;;;;;;;;;;;;;;15.57;31.39;103426.50;5126046;27;19927;-87
2021/04/13 09:17:50;;;;;;;;;;;;;;;16.00;31.04;103432.59;5161876;27;19916;-87
2021/04/13 09:20:39;;;;;;;;;;;;;;;16.30;30.53;103427.16;5143796;27;19911;-88
2021/04/13 09:23:10;;;;;;;;;;;;;;;16.46;30.03;103424.88;5085749;28;19916;-89
2021/04/13 09:25:55;;;;;;;;;;;;;;;17.88;28.27;103422.78;5124940;28;19918;-89
2021/04/13 09:28:22;;;;;;;;;;;;;;;18.04;28.85;103424.03;5122487;28;19911;-89
2021/04/13 09:30:49;;;;;;;;;;;;;;;16.35;31.35;103429.75;5122523;28;20108;-87
2021/04/13 09:33:30;;;;;;;;;;;;;;;15.91;32.64;103425.59;5127163;28;19997;-87
2021/04/13 09:36:06;;;;;;;;;;;;;;;15.11;33.59;103429.53;5122504;28;19951;-86
2021/04/13 09:38:50;;;;;;;;;;;;;;;14.83;34.11;103435.69;5125976;27;19923;-89
2021/04/13 09:41:31;;;;;;;;;;;;;;;15.96;31.74;103428.19;5127008;27;19924;-87
2021/04/13 09:44:14;;;;;;;;;;;;;;;16.99;31.12;103437.78;5126436;27;19915;-88
2021/04/13 09:46:39;;;;;;;;;;;;;;;16.73;29.83;103436.75;5127614;27;19971;-87
2021/04/13 09:49:11;;;;;;;;;;;;;;;15.17;31.33;103434.84;5127749;27;19922;-89
2021/04/13 09:51:55;;;;;;;;;;;;;;;16.25;31.04;103435.50;5127559;27;19968;-90
2021/04/13 09:54:26;;;;;;;;;;;;;;;15.86;31.65;103443.03;5126603;27;19920;-87
2021/04/13 09:57:10;;;;;;;;;;;;;;;16.23;30.95;103431.94;5126504;27;19954;-89
2021/04/13 09:59:54;;;;;;;;;;;;;;;17.65;29.32;103427.28;5127784;27;20330;-87
2021/04/13 10:02:38;;;;;;;;;;;;;;;16.36;31.90;103432.44;5128232;27;20053;-92
2021/04/13 10:05:14;;;;;;;;;;;;;;;16.09;31.85;103434.16;5128606;27;19979;-89
2021/04/13 10:07:41;;;;;;;;;;;;;;;16.76;30.12;103427.56;5135825;27;19904;-89
2021/04/13 10:10:12;;;;;;;;;;;;;;;16.52;30.64;103427.41;5125332;27;19930;-91
2021/04/13 10:12:57;;;;;;;;;;;;;;;16.84;28.66;103429.09;5134248;27;19922;-88
2021/04/13 10:15:41;;;;;;;;;;;;;;;16.98;29.55;103425.94;5142993;27;19919;-90
2021/04/13 10:18:25;;;;;;;;;;;;;;;16.73;30.75;103430.41;5129360;27;19899;-88
2021/04/13 10:21:05;;;;;;;;;;;;;;;17.25;29.27;103425.06;5128623;27;19911;-91
2021/04/13 10:23:49;;;;;;;;;;;;;;;17.44;29.42;103418.00;5127621;27;19919;-88
2021/04/13 10:26:48;;;;;;;;;;;;;;;16.81;27.49;103426.44;5140395;27;20022;-89
2021/04/13 10:29:19;;;;;;;;;;;;;;;16.74;27.92;103424.91;5140178;27;19919;-91
2021/04/13 10:32:03;;;;;;;;;;;;;;;17.40;27.64;103426.38;5143956;27;19916;-91
2021/04/13 10:34:55;;;;;;;;;;;;;;;17.48;28.40;103419.69;5129768;27;19923;-91
2021/04/13 10:37:39;;;;;;;;;;;;;;;17.18;26.69;103413.41;5134932;27;19923;-91
2021/04/13 10:40:22;;;;;;;;;;;;;;;17.26;27.60;103415.91;5131998;27;19923;-86
2021/04/13 10:43:08;;;;;;;;;;;;;;;15.95;29.09;103413.63;5126021;27;20552;-86
2021/04/13 10:45:35;;;;;;;;;;;;;;;16.23;28.98;103412.81;5124110;27;19918;-86
2021/04/13 10:48:10;;;;;;;;;;;;;;;15.61;30.28;103408.22;5144619;27;20311;-83
2021/04/13 10:50:54;;;;;;;;;;;;;;;16.78;28.80;103412.00;5125336;27;19919;-84
2021/04/13 10:53:30;;;;;;;;;;;;;;;17.12;28.36;103410.88;5136844;27;19915;-86
2021/04/13 10:56:14;;;;;;;;;;;;;;;17.04;28.81;103413.00;5157603;27;19972;-84
2021/04/13 10:58:42;;;;;;;;;;;;;;;17.08;28.90;103415.59;5142189;27;19941;-86
2021/04/13 11:01:21;;;;;;;;;;;;;;;17.77;27.72;103414.06;5136198;27;19919;-87
2021/04/13 11:03:56;;;;;;;;;;;;;;;19.79;25.35;103409.50;5145887;27;19971;-88
2021/04/13 11:06:39;;;;;;;;;;;;;;;17.70;27.62;103411.56;5139075;27;19916;-86
2021/04/13 11:09:33;;;;;;;;;;;;;;;17.47;28.70;103417.00;5122147;27;20289;-91
2021/04/13 11:12:17;;;;;;;;;;;;;;;16.20;30.20;103412.91;5127316;27;19921;-89
2021/04/13 11:15:03;;;;;;;;;;;;;;;17.17;28.24;103408.91;5163487;27;19980;-86
2021/04/13 11:17:37;;;;;;;;;;;;;;;17.46;28.17;103405.13;5144781;27;19926;-85
2021/04/13 11:20:16;;;;;;;;;;;;;;;17.88;27.46;103403.63;5155803;27;19923;-86
2021/04/13 11:22:56;;;;;;;;;;;;;;;15.87;31.02;103412.97;5138715;27;19922;-88
2021/04/13 11:25:36;;;;;;;;;;;;;;;15.73;29.68;103417.88;5154469;27;19984;-84
2021/04/13 11:28:07;;;;;;;;;;;;;;;16.34;29.85;103397.94;5153582;27;19978;-87
2021/04/13 11:30:44;;;;;;;;;;;;;;;16.86;26.88;103401.69;5157000;27;19927;-86
2021/04/13 11:33:17;;;;;;;;;;;;;;;17.93;25.84;103398.88;5135766;27;19915;-86
2021/04/13 11:35:44;;;;;;;;;;;;;;;18.23;25.70;103396.81;5140628;27;19915;-84
2021/04/13 11:38:11;;;;;;;;;;;;;;;17.22;27.86;103397.81;5144824;27;19929;-86
2021/04/13 11:40:49;;;;;;;;;;;;;;;17.52;26.70;103387.59;5143488;27;19977;-85
2021/04/13 11:43:16;;;;;;;;;;;;;;;17.58;26.82;103381.03;5140124;27;20384;-83
2021/04/13 11:46:00;;;;;;;;;;;;;;;17.10;28.33;103388.19;5132296;27;19953;-87
2021/04/13 11:48:29;;;;;;;;;;;;;;;16.65;27.87;103390.53;5141832;27;20006;-86
2021/04/13 11:50:57;;;;;;;;;;;;;;;18.59;26.37;103381.69;5129184;27;20304;-87
2021/04/13 11:53:30;;;;;;;;;;;;;;;19.91;23.98;103372.28;5141951;27;19934;-85
2021/04/13 11:55:56;;;;;;;;;;;;;;;19.87;23.60;103383.50;5140470;27;19911;-83
2021/04/13 11:58:26;;;;;;;;;;;;;;;19.55;23.93;103377.59;5136448;27;20280;-86
2021/04/13 12:00:52;;;;;;;;;;;;;;;18.20;25.73;103379.59;5124122;27;19916;-83
2021/04/13 12:03:17;;;;;;;;;;;;;;;18.35;25.10;103383.59;5106428;27;19920;-84
2021/04/13 12:05:53;;;;;;;;;;;;;;;17.46;26.70;103383.25;5127712;27;19930;-85
2021/04/13 12:08:31;;;;;;;;;;;;;;;17.79;25.85;103382.94;5146043;27;19917;-86
2021/04/13 12:10:58;;;;;;;;;;;;;;;17.26;26.23;103383.97;5143130;27;19912;-86
2021/04/13 12:13:37;;;;;;;;;;;;;;;18.00;24.83;103378.53;5136549;27;20404;-84
2021/04/13 12:16:03;;;;;;;;;;;;;;;19.50;23.80;103369.56;5124082;27;20250;-87
2021/04/13 12:18:35;;;;;;;;;;;;;;;18.67;24.89;103378.63;5130502;27;20414;-86
2021/04/13 12:21:19;;;;;;;;;;;;;;;18.94;24.18;103377.47;5160538;27;19922;-86
2021/04/13 12:23:44;;;;;;;;;;;;;;;19.98;21.40;103368.28;5139635;27;19919;-87
2021/04/13 12:26:09;;;;;;;;;;;;;;;19.41;23.09;103372.75;5142669;27;19923;-85
2021/04/13 12:28:34;;;;;;;;;;;;;;;19.56;22.46;103379.41;5125156;27;20376;-87
2021/04/13 12:31:11;;;;;;;;;;;;;;;19.03;21.44;103384.44;5134659;27;20003;-89
2021/04/13 12:33:37;;;;;;;;;;;;;;;18.17;23.82;103385.19;5128970;28;20595;-84
2021/04/13 12:36:05;;;;;;;;;;;;;;;19.25;20.96;103383.53;5125181;28;19915;-83
2021/04/13 12:38:43;;;;;;;;;;;;;;;19.16;23.36;103381.16;5123377;28;19916;-84
2021/04/13 12:41:17;;;;;;;;;;;;;;;18.58;23.98;103386.28;5122474;28;19994;-84
2021/04/13 12:43:44;;;;;;;;;;;;;;;17.83;24.72;103387.38;5125579;28;19903;-85
2021/04/13 12:46:38;;;;;;;;;;;;;;;17.58;25.29;103381.91;5126593;28;20000;-86
2021/04/13 12:49:05;;;;;;;;;;;;;;;17.43;26.63;103386.09;5126746;28;19960;-83
2021/04/13 12:51:32;;;;;;;;;;;;;;;17.79;24.33;103385.69;5125446;27;20002;-89
2021/04/13 12:54:07;;;;;;;;;;;;;;;17.64;26.13;103381.66;5130156;28;19986;-89
2021/04/13 12:56:33;;;;;;;;;;;;;;;18.25;25.22;103380.28;5130514;28;19919;-91
2021/04/13 12:59:06;;;;;;;;;;;;;;;17.41;25.24;103378.88;5148234;28;19985;-88
2021/04/13 13:01:43;;;;;;;;;;;;;;;16.90;25.96;103378.81;5128908;28;19920;-89